STL7W YMML-YSSY
Flight info
| Callsign | STL7W |
|---|---|
| Flight time | 1h 7m |
| Altitude | 33000 |
| Route | DCT ML H129 DOSEL Y59 RIVET RIVET4 |
| Aircraft | B736/M-SDE2E3FGHIRWXY/LB1 |
Departure
| Time | 2026-04-24 11:56 |
|---|---|
| Airport | Melbourne Airport (YMML) |
Arrival
| Time | 2026-04-24 13:03 |
|---|---|
| Airport | Sydney Kingsford Smith International Airport (YSSY) |
| Time | Latitude | Longitude | Altitude | Speed | Heading |
|---|---|---|---|---|---|
| 2026-04-24 11:33 | -37.66566 | 144.84485 | 358 ft | 0 kts | 352° |
| 2026-04-24 11:44 | -37.66581 | 144.84487 | 360 ft | 3 kts | 352° |
| 2026-04-24 11:44 | -37.66599 | 144.84491 | 358 ft | 3 kts | 352° |
| 2026-04-24 11:45 | -37.66617 | 144.84494 | 362 ft | 3 kts | 352° |
| 2026-04-24 11:45 | -37.66635 | 144.84497 | 361 ft | 3 kts | 352° |
| 2026-04-24 11:45 | -37.66652 | 144.84503 | 358 ft | 3 kts | 297° |
| 2026-04-24 11:45 | -37.66654 | 144.84527 | 358 ft | 3 kts | 264° |
| 2026-04-24 11:46 | -37.66653 | 144.84540 | 354 ft | 0 kts | 264° |
| 2026-04-24 11:50 | -37.66653 | 144.84539 | 354 ft | 1 kts | 264° |
| 2026-04-24 11:50 | -37.66659 | 144.84501 | 360 ft | 8 kts | 261° |
| 2026-04-24 11:50 | -37.66675 | 144.84425 | 360 ft | 8 kts | 258° |
| 2026-04-24 11:50 | -37.66686 | 144.84352 | 365 ft | 9 kts | 258° |
| 2026-04-24 11:51 | -37.66696 | 144.84267 | 370 ft | 11 kts | 264° |
| 2026-04-24 11:51 | -37.66734 | 144.84193 | 374 ft | 11 kts | 197° |
| 2026-04-24 11:51 | -37.66819 | 144.84199 | 374 ft | 14 kts | 171° |
| 2026-04-24 11:51 | -37.66935 | 144.84220 | 372 ft | 19 kts | 172° |
| 2026-04-24 11:52 | -37.67077 | 144.84247 | 369 ft | 16 kts | 172° |
| 2026-04-24 11:52 | -37.67184 | 144.84266 | 367 ft | 16 kts | 172° |
| 2026-04-24 11:52 | -37.67300 | 144.84286 | 366 ft | 17 kts | 172° |
| 2026-04-24 11:52 | -37.67412 | 144.84308 | 361 ft | 16 kts | 169° |
| 2026-04-24 11:53 | -37.67522 | 144.84329 | 358 ft | 16 kts | 173° |
| 2026-04-24 11:53 | -37.67631 | 144.84350 | 355 ft | 16 kts | 171° |
| 2026-04-24 11:53 | -37.67747 | 144.84371 | 355 ft | 13 kts | 179° |
| 2026-04-24 11:53 | -37.67802 | 144.84355 | 357 ft | 0 kts | 214° |
| 2026-04-24 11:54 | -37.67804 | 144.84353 | 356 ft | 0 kts | 214° |
| 2026-04-24 11:54 | -37.67808 | 144.84350 | 355 ft | 0 kts | 214° |
| 2026-04-24 11:54 | -37.67809 | 144.84350 | 355 ft | 0 kts | 214° |
| 2026-04-24 11:54 | -37.67828 | 144.84328 | 350 ft | 8 kts | 227° |
| 2026-04-24 11:55 | -37.67859 | 144.84240 | 353 ft | 14 kts | 257° |
| 2026-04-24 11:55 | -37.67872 | 144.84120 | 358 ft | 1 kts | 262° |
| 2026-04-24 11:55 | -37.67874 | 144.84101 | 354 ft | 10 kts | 263° |
| 2026-04-24 11:56 | -37.67824 | 144.83972 | 357 ft | 23 kts | 327° |
| 2026-04-24 11:56 | -37.67562 | 144.83887 | 363 ft | 75 kts | 346° |
| 2026-04-24 11:56 | -37.66754 | 144.83740 | 417 ft | 154 kts | 350° |
| 2026-04-24 11:56 | -37.65606 | 144.83521 | 1286 ft | 161 kts | 352° |
| 2026-04-24 11:57 | -37.64543 | 144.83359 | 2617 ft | 151 kts | 353° |
| 2026-04-24 11:57 | -37.63448 | 144.83154 | 3359 ft | 173 kts | 350° |
| 2026-04-24 11:57 | -37.62123 | 144.82886 | 3887 ft | 209 kts | 350° |
| 2026-04-24 11:57 | -37.60609 | 144.82579 | 4487 ft | 224 kts | 351° |
| 2026-04-24 11:58 | -37.59056 | 144.82336 | 5041 ft | 229 kts | 2° |
| 2026-04-24 11:58 | -37.57501 | 144.82925 | 5160 ft | 246 kts | 27° |
| 2026-04-24 11:58 | -37.56030 | 144.84091 | 5531 ft | 250 kts | 30° |
| 2026-04-24 11:58 | -37.54497 | 144.85121 | 6048 ft | 248 kts | 27° |
| 2026-04-24 11:59 | -37.52944 | 144.86091 | 6502 ft | 251 kts | 25° |
| 2026-04-24 11:59 | -37.51371 | 144.87027 | 6937 ft | 254 kts | 25° |
| 2026-04-24 11:59 | -37.49748 | 144.87990 | 7342 ft | 258 kts | 25° |
| 2026-04-24 11:59 | -37.48142 | 144.88954 | 7976 ft | 254 kts | 25° |
| 2026-04-24 12:00 | -37.46535 | 144.89925 | 8383 ft | 259 kts | 25° |
| 2026-04-24 12:00 | -37.44903 | 144.90926 | 8727 ft | 267 kts | 25° |
| 2026-04-24 12:00 | -37.43305 | 144.92156 | 9122 ft | 272 kts | 45° |
| 2026-04-24 12:00 | -37.42168 | 144.94033 | 9726 ft | 269 kts | 56° |
| 2026-04-24 12:01 | -37.41128 | 144.96003 | 10150 ft | 275 kts | 56° |
| 2026-04-24 12:01 | -37.40052 | 144.98003 | 10647 ft | 277 kts | 55° |
| 2026-04-24 12:01 | -37.38956 | 144.99993 | 11266 ft | 275 kts | 55° |
| 2026-04-24 12:01 | -37.37860 | 145.01961 | 11848 ft | 275 kts | 54° |
| 2026-04-24 12:02 | -37.36759 | 145.03911 | 12344 ft | 278 kts | 54° |
| 2026-04-24 12:02 | -37.35612 | 145.05936 | 12672 ft | 292 kts | 54° |
| 2026-04-24 12:02 | -37.34375 | 145.08117 | 12821 ft | 317 kts | 54° |
| 2026-04-24 12:02 | -37.33046 | 145.10460 | 13018 ft | 340 kts | 54° |
| 2026-04-24 12:03 | -37.31659 | 145.12906 | 13415 ft | 353 kts | 54° |
| 2026-04-24 12:03 | -37.30212 | 145.15456 | 14064 ft | 359 kts | 54° |
| 2026-04-24 12:03 | -37.28769 | 145.17999 | 14819 ft | 362 kts | 54° |
| 2026-04-24 12:03 | -37.27303 | 145.20581 | 15572 ft | 364 kts | 54° |
| 2026-04-24 12:04 | -37.25817 | 145.23195 | 16299 ft | 368 kts | 54° |
| 2026-04-24 12:04 | -37.24322 | 145.25825 | 16968 ft | 372 kts | 54° |
| 2026-04-24 12:04 | -37.22808 | 145.28484 | 17630 ft | 376 kts | 54° |
| 2026-04-24 12:04 | -37.21278 | 145.31172 | 18298 ft | 380 kts | 54° |
| 2026-04-24 12:05 | -37.19753 | 145.33849 | 18966 ft | 383 kts | 54° |
| 2026-04-24 12:05 | -37.18193 | 145.36582 | 19604 ft | 386 kts | 54° |
| 2026-04-24 12:05 | -37.16620 | 145.39337 | 20216 ft | 390 kts | 54° |
| 2026-04-24 12:05 | -37.14902 | 145.41994 | 20802 ft | 393 kts | 49° |
| 2026-04-24 12:06 | -37.13207 | 145.44669 | 21348 ft | 398 kts | 52° |
| 2026-04-24 12:06 | -37.11523 | 145.47481 | 21792 ft | 405 kts | 53° |
| 2026-04-24 12:06 | -37.09866 | 145.50351 | 22203 ft | 413 kts | 54° |
| 2026-04-24 12:06 | -37.08201 | 145.53320 | 22676 ft | 417 kts | 55° |
| 2026-04-24 12:07 | -37.06533 | 145.56299 | 23418 ft | 414 kts | 54° |
| 2026-04-24 12:07 | -37.04850 | 145.59227 | 24091 ft | 414 kts | 54° |
| 2026-04-24 12:07 | -37.03174 | 145.62120 | 24632 ft | 416 kts | 54° |
| 2026-04-24 12:07 | -37.01457 | 145.65080 | 25090 ft | 421 kts | 54° |
| 2026-04-24 12:08 | -36.99732 | 145.68060 | 25538 ft | 425 kts | 54° |
| 2026-04-24 12:08 | -36.97991 | 145.71074 | 26002 ft | 428 kts | 54° |
| 2026-04-24 12:08 | -36.96237 | 145.74116 | 26482 ft | 431 kts | 54° |
| 2026-04-24 12:08 | -36.94490 | 145.77147 | 26918 ft | 434 kts | 54° |
| 2026-04-24 12:09 | -36.92720 | 145.80218 | 27330 ft | 437 kts | 54° |
| 2026-04-24 12:09 | -36.90925 | 145.83330 | 27725 ft | 441 kts | 54° |
| 2026-04-24 12:09 | -36.89118 | 145.86460 | 28110 ft | 444 kts | 54° |
| 2026-04-24 12:09 | -36.87320 | 145.89573 | 28479 ft | 447 kts | 54° |
| 2026-04-24 12:10 | -36.85495 | 145.92729 | 28874 ft | 449 kts | 54° |
| 2026-04-24 12:10 | -36.83665 | 145.95892 | 29435 ft | 447 kts | 54° |
| 2026-04-24 12:10 | -36.81844 | 145.99034 | 29998 ft | 445 kts | 54° |
| 2026-04-24 12:11 | -36.78248 | 146.05232 | 31080 ft | 440 kts | 54° |
| 2026-04-24 12:11 | -36.76451 | 146.08325 | 31516 ft | 440 kts | 54° |
| 2026-04-24 12:11 | -36.74643 | 146.11434 | 31902 ft | 441 kts | 54° |
| 2026-04-24 12:11 | -36.72839 | 146.14533 | 32351 ft | 439 kts | 54° |
| 2026-04-24 12:12 | -36.71061 | 146.17586 | 32742 ft | 439 kts | 54° |
| 2026-04-24 12:12 | -36.69255 | 146.20682 | 33016 ft | 440 kts | 54° |
| 2026-04-24 12:12 | -36.67463 | 146.23753 | 32985 ft | 441 kts | 54° |
| 2026-04-24 12:13 | -36.63885 | 146.29874 | 32997 ft | 437 kts | 54° |
| 2026-04-24 12:13 | -36.60298 | 146.36000 | 33013 ft | 438 kts | 53° |
| 2026-04-24 12:14 | -36.56697 | 146.42139 | 33006 ft | 438 kts | 53° |
| 2026-04-24 12:14 | -36.53114 | 146.48237 | 33001 ft | 439 kts | 53° |
| 2026-04-24 12:15 | -36.49498 | 146.54380 | 33002 ft | 439 kts | 53° |
| 2026-04-24 12:15 | -36.42937 | 146.65499 | 33001 ft | 439 kts | 53° |
| 2026-04-24 12:16 | -36.34307 | 146.80066 | 33010 ft | 439 kts | 53° |
| 2026-04-24 12:16 | -36.28271 | 146.90220 | 33001 ft | 439 kts | 53° |
| 2026-04-24 12:17 | -36.21001 | 147.02412 | 33002 ft | 439 kts | 53° |
| 2026-04-24 12:17 | -36.13757 | 147.14487 | 33000 ft | 438 kts | 53° |
| 2026-04-24 12:18 | -36.06451 | 147.26594 | 33003 ft | 438 kts | 53° |
| 2026-04-24 12:18 | -35.99170 | 147.38627 | 32999 ft | 438 kts | 53° |
| 2026-04-24 12:19 | -35.91855 | 147.50676 | 32997 ft | 438 kts | 53° |
| 2026-04-24 12:19 | -35.84512 | 147.62731 | 33002 ft | 438 kts | 53° |
| 2026-04-24 12:20 | -35.77307 | 147.74503 | 33002 ft | 438 kts | 53° |
| 2026-04-24 12:20 | -35.70002 | 147.86404 | 33433 ft | 429 kts | 54° |
| 2026-04-24 12:21 | -35.66148 | 147.92671 | 33538 ft | 444 kts | 54° |
| 2026-04-24 12:21 | -35.62369 | 147.98803 | 33529 ft | 452 kts | 54° |
| 2026-04-24 12:22 | -35.58543 | 148.04996 | 33536 ft | 454 kts | 54° |
| 2026-04-24 12:22 | -35.54739 | 148.11145 | 33523 ft | 453 kts | 54° |
| 2026-04-24 12:23 | -35.50924 | 148.17301 | 33534 ft | 452 kts | 55° |
| 2026-04-24 12:23 | -35.47136 | 148.23405 | 33547 ft | 450 kts | 55° |
| 2026-04-24 12:24 | -35.43332 | 148.29523 | 33525 ft | 448 kts | 55° |
| 2026-04-24 12:24 | -35.39574 | 148.35544 | 33521 ft | 446 kts | 54° |
| 2026-04-24 12:25 | -35.35800 | 148.41577 | 33538 ft | 444 kts | 55° |
| 2026-04-24 12:25 | -35.32052 | 148.47559 | 33521 ft | 445 kts | 55° |
| 2026-04-24 12:26 | -35.28266 | 148.53595 | 33539 ft | 445 kts | 55° |
| 2026-04-24 12:26 | -35.24501 | 148.59589 | 33539 ft | 446 kts | 55° |
| 2026-04-24 12:27 | -35.20720 | 148.65595 | 33541 ft | 447 kts | 55° |
| 2026-04-24 12:27 | -35.16911 | 148.71637 | 33545 ft | 448 kts | 55° |
| 2026-04-24 12:28 | -35.13123 | 148.77636 | 33544 ft | 448 kts | 55° |
| 2026-04-24 12:28 | -35.09315 | 148.83653 | 33313 ft | 445 kts | 55° |
| 2026-04-24 12:28 | -35.07430 | 148.86626 | 33046 ft | 439 kts | 55° |
| 2026-04-24 12:29 | -35.05572 | 148.89554 | 32794 ft | 434 kts | 56° |
| 2026-04-24 12:29 | -35.03731 | 148.92456 | 32548 ft | 432 kts | 56° |
| 2026-04-24 12:29 | -35.01910 | 148.95325 | 32299 ft | 431 kts | 56° |
| 2026-04-24 12:29 | -35.00070 | 148.98220 | 32050 ft | 429 kts | 56° |
| 2026-04-24 12:30 | -34.98251 | 149.01081 | 31805 ft | 428 kts | 56° |
| 2026-04-24 12:30 | -34.96424 | 149.03951 | 31563 ft | 427 kts | 56° |
| 2026-04-24 12:30 | -34.94601 | 149.06814 | 31325 ft | 426 kts | 56° |
| 2026-04-24 12:30 | -34.92787 | 149.09659 | 31090 ft | 424 kts | 56° |
| 2026-04-24 12:31 | -34.90973 | 149.12501 | 30859 ft | 423 kts | 56° |
| 2026-04-24 12:31 | -34.89171 | 149.15323 | 30613 ft | 421 kts | 56° |
| 2026-04-24 12:31 | -34.87398 | 149.18098 | 30339 ft | 419 kts | 56° |
| 2026-04-24 12:31 | -34.85606 | 149.20899 | 30060 ft | 416 kts | 56° |
| 2026-04-24 12:32 | -34.83827 | 149.23679 | 29774 ft | 414 kts | 56° |
| 2026-04-24 12:32 | -34.82079 | 149.26407 | 29498 ft | 411 kts | 56° |
| 2026-04-24 12:32 | -34.80323 | 149.29148 | 29234 ft | 408 kts | 56° |
| 2026-04-24 12:32 | -34.78574 | 149.31875 | 28958 ft | 406 kts | 56° |
| 2026-04-24 12:33 | -34.76836 | 149.34584 | 28696 ft | 403 kts | 55° |
| 2026-04-24 12:33 | -34.75130 | 149.37238 | 28440 ft | 401 kts | 55° |
| 2026-04-24 12:33 | -34.73502 | 149.39967 | 28173 ft | 396 kts | 63° |
| 2026-04-24 12:33 | -34.72174 | 149.42885 | 27927 ft | 392 kts | 65° |
| 2026-04-24 12:34 | -34.70915 | 149.45828 | 27666 ft | 390 kts | 66° |
| 2026-04-24 12:34 | -34.69678 | 149.48752 | 27410 ft | 388 kts | 66° |
| 2026-04-24 12:34 | -34.68454 | 149.51628 | 27166 ft | 386 kts | 66° |
| 2026-04-24 12:34 | -34.67213 | 149.54517 | 26921 ft | 385 kts | 65° |
| 2026-04-24 12:35 | -34.65963 | 149.57404 | 26670 ft | 384 kts | 65° |
| 2026-04-24 12:35 | -34.64716 | 149.60266 | 26434 ft | 382 kts | 65° |
| 2026-04-24 12:35 | -34.63483 | 149.63086 | 26193 ft | 380 kts | 65° |
| 2026-04-24 12:35 | -34.62243 | 149.65920 | 25952 ft | 379 kts | 65° |
| 2026-04-24 12:36 | -34.61006 | 149.68741 | 25714 ft | 377 kts | 64° |
| 2026-04-24 12:36 | -34.59770 | 149.71557 | 25478 ft | 376 kts | 64° |
| 2026-04-24 12:36 | -34.58543 | 149.74352 | 25240 ft | 374 kts | 64° |
| 2026-04-24 12:36 | -34.57331 | 149.77111 | 25013 ft | 373 kts | 64° |
| 2026-04-24 12:37 | -34.56112 | 149.79881 | 24776 ft | 372 kts | 64° |
| 2026-04-24 12:37 | -34.54895 | 149.82648 | 24544 ft | 370 kts | 64° |
| 2026-04-24 12:37 | -34.53681 | 149.85404 | 24310 ft | 369 kts | 64° |
| 2026-04-24 12:37 | -34.52474 | 149.88144 | 23974 ft | 366 kts | 64° |
| 2026-04-24 12:38 | -34.51275 | 149.90862 | 23543 ft | 363 kts | 64° |
| 2026-04-24 12:38 | -34.50100 | 149.93521 | 23157 ft | 359 kts | 64° |
| 2026-04-24 12:38 | -34.48924 | 149.96179 | 22810 ft | 354 kts | 63° |
| 2026-04-24 12:39 | -34.45476 | 150.03970 | 21606 ft | 347 kts | 63° |
| 2026-04-24 12:39 | -34.44336 | 150.06543 | 21208 ft | 345 kts | 63° |
| 2026-04-24 12:39 | -34.43204 | 150.09097 | 20821 ft | 343 kts | 63° |
| 2026-04-24 12:40 | -34.42075 | 150.11642 | 20436 ft | 341 kts | 63° |
| 2026-04-24 12:40 | -34.40976 | 150.14118 | 20050 ft | 339 kts | 63° |
| 2026-04-24 12:40 | -34.39858 | 150.16633 | 19677 ft | 337 kts | 63° |
| 2026-04-24 12:40 | -34.38743 | 150.19141 | 19280 ft | 336 kts | 63° |
| 2026-04-24 12:41 | -34.37652 | 150.21594 | 18909 ft | 335 kts | 63° |
| 2026-04-24 12:41 | -34.36543 | 150.24087 | 18477 ft | 334 kts | 63° |
| 2026-04-24 12:41 | -34.35443 | 150.26556 | 18056 ft | 332 kts | 63° |
| 2026-04-24 12:41 | -34.34347 | 150.29013 | 17650 ft | 330 kts | 62° |
| 2026-04-24 12:42 | -34.33262 | 150.31446 | 17263 ft | 327 kts | 63° |
| 2026-04-24 12:42 | -34.32198 | 150.33831 | 16942 ft | 324 kts | 63° |
| 2026-04-24 12:42 | -34.31133 | 150.36216 | 16693 ft | 320 kts | 63° |
| 2026-04-24 12:42 | -34.30078 | 150.38576 | 16443 ft | 318 kts | 63° |
| 2026-04-24 12:43 | -34.29019 | 150.40942 | 16191 ft | 318 kts | 62° |
| 2026-04-24 12:43 | -34.27976 | 150.43272 | 15947 ft | 318 kts | 62° |
| 2026-04-24 12:43 | -34.26922 | 150.45627 | 15708 ft | 319 kts | 62° |
| 2026-04-24 12:43 | -34.25862 | 150.47994 | 15466 ft | 320 kts | 62° |
| 2026-04-24 12:44 | -34.24799 | 150.50370 | 15232 ft | 321 kts | 62° |
| 2026-04-24 12:44 | -34.23737 | 150.52740 | 14991 ft | 321 kts | 62° |
| 2026-04-24 12:44 | -34.22687 | 150.55084 | 14761 ft | 321 kts | 62° |
| 2026-04-24 12:44 | -34.21623 | 150.57457 | 14525 ft | 321 kts | 62° |
| 2026-04-24 12:45 | -34.20561 | 150.59824 | 14285 ft | 319 kts | 62° |
| 2026-04-24 12:45 | -34.19504 | 150.62175 | 14051 ft | 314 kts | 62° |
| 2026-04-24 12:45 | -34.18473 | 150.64467 | 13753 ft | 308 kts | 62° |
| 2026-04-24 12:45 | -34.17450 | 150.66742 | 13362 ft | 307 kts | 62° |
| 2026-04-24 12:46 | -34.16431 | 150.69008 | 12974 ft | 305 kts | 62° |
| 2026-04-24 12:46 | -34.15434 | 150.71222 | 12624 ft | 303 kts | 62° |
| 2026-04-24 12:46 | -34.14434 | 150.73443 | 12422 ft | 294 kts | 62° |
| 2026-04-24 12:46 | -34.13479 | 150.75565 | 12318 ft | 282 kts | 62° |
| 2026-04-24 12:47 | -34.12552 | 150.77622 | 12065 ft | 278 kts | 62° |
| 2026-04-24 12:47 | -34.11628 | 150.79670 | 11752 ft | 277 kts | 62° |
| 2026-04-24 12:47 | -34.10705 | 150.81713 | 11441 ft | 275 kts | 62° |
| 2026-04-24 12:47 | -34.09802 | 150.83716 | 11138 ft | 274 kts | 62° |
| 2026-04-24 12:48 | -34.08890 | 150.85741 | 10844 ft | 272 kts | 62° |
| 2026-04-24 12:48 | -34.07987 | 150.87749 | 10542 ft | 271 kts | 62° |
| 2026-04-24 12:48 | -34.07002 | 150.89648 | 10219 ft | 271 kts | 48° |
| 2026-04-24 12:48 | -34.05442 | 150.90908 | 9874 ft | 272 kts | 20° |
| 2026-04-24 12:49 | -34.03572 | 150.91255 | 9584 ft | 273 kts | 5° |
| 2026-04-24 12:49 | -34.01682 | 150.91312 | 9262 ft | 268 kts | 3° |
| 2026-04-24 12:49 | -33.99833 | 150.91337 | 8706 ft | 266 kts | 3° |
| 2026-04-24 12:49 | -33.97984 | 150.91357 | 8125 ft | 265 kts | 2° |
| 2026-04-24 12:50 | -33.96169 | 150.91376 | 7603 ft | 262 kts | 2° |
| 2026-04-24 12:50 | -33.94348 | 150.91388 | 7103 ft | 258 kts | 2° |
| 2026-04-24 12:50 | -33.92559 | 150.91401 | 6577 ft | 256 kts | 2° |
| 2026-04-24 12:50 | -33.90786 | 150.91420 | 6185 ft | 255 kts | 2° |
| 2026-04-24 12:51 | -33.89016 | 150.91445 | 6077 ft | 257 kts | 2° |
| 2026-04-24 12:51 | -33.87253 | 150.91471 | 6011 ft | 248 kts | 2° |
| 2026-04-24 12:51 | -33.85539 | 150.91495 | 5998 ft | 242 kts | 2° |
| 2026-04-24 12:51 | -33.83890 | 150.91517 | 5990 ft | 234 kts | 2° |
| 2026-04-24 12:52 | -33.82303 | 150.91534 | 5954 ft | 221 kts | 2° |
| 2026-04-24 12:52 | -33.80803 | 150.91545 | 5687 ft | 214 kts | 2° |
| 2026-04-24 12:52 | -33.79314 | 150.91555 | 5297 ft | 213 kts | 2° |
| 2026-04-24 12:52 | -33.77836 | 150.91567 | 5049 ft | 213 kts | 2° |
| 2026-04-24 12:53 | -33.76333 | 150.91582 | 5027 ft | 215 kts | 2° |
| 2026-04-24 12:53 | -33.74860 | 150.91597 | 5020 ft | 212 kts | 2° |
| 2026-04-24 12:53 | -33.73389 | 150.91681 | 5016 ft | 211 kts | 11° |
| 2026-04-24 12:53 | -33.71969 | 150.92136 | 5024 ft | 210 kts | 24° |
| 2026-04-24 12:54 | -33.70698 | 150.92966 | 5024 ft | 209 kts | 37° |
| 2026-04-24 12:54 | -33.69621 | 150.94135 | 5015 ft | 207 kts | 50° |
| 2026-04-24 12:54 | -33.68838 | 150.95519 | 4958 ft | 193 kts | 64° |
| 2026-04-24 12:54 | -33.68402 | 150.96975 | 4711 ft | 181 kts | 78° |
| 2026-04-24 12:55 | -33.68303 | 150.98465 | 4350 ft | 181 kts | 91° |
| 2026-04-24 12:55 | -33.68374 | 150.99980 | 3987 ft | 180 kts | 93° |
| 2026-04-24 12:55 | -33.68467 | 151.01461 | 3705 ft | 174 kts | 94° |
| 2026-04-24 12:55 | -33.68559 | 151.02883 | 3360 ft | 173 kts | 94° |
| 2026-04-24 12:56 | -33.68649 | 151.04322 | 3042 ft | 171 kts | 94° |
| 2026-04-24 12:56 | -33.68741 | 151.05780 | 3035 ft | 177 kts | 94° |
| 2026-04-24 12:56 | -33.68897 | 151.07242 | 2997 ft | 175 kts | 103° |
| 2026-04-24 12:56 | -33.69349 | 151.08566 | 2997 ft | 173 kts | 120° |
| 2026-04-24 12:57 | -33.70095 | 151.09705 | 3000 ft | 175 kts | 132° |
| 2026-04-24 12:57 | -33.70954 | 151.10750 | 3003 ft | 176 kts | 133° |
| 2026-04-24 12:57 | -33.71923 | 151.11647 | 2982 ft | 179 kts | 160° |
| 2026-04-24 12:57 | -33.73138 | 151.11966 | 3008 ft | 179 kts | 165° |
| 2026-04-24 12:58 | -33.74361 | 151.12309 | 3011 ft | 180 kts | 165° |
| 2026-04-24 12:58 | -33.75564 | 151.12641 | 3003 ft | 177 kts | 165° |
| 2026-04-24 12:58 | -33.76712 | 151.12946 | 3009 ft | 160 kts | 166° |
| 2026-04-24 12:58 | -33.77785 | 151.13225 | 2993 ft | 157 kts | 166° |
| 2026-04-24 12:59 | -33.78834 | 151.13498 | 2839 ft | 150 kts | 166° |
| 2026-04-24 12:59 | -33.79837 | 151.13758 | 2686 ft | 144 kts | 166° |
| 2026-04-24 12:59 | -33.80821 | 151.14014 | 2486 ft | 146 kts | 166° |
| 2026-04-24 12:59 | -33.81812 | 151.14271 | 2286 ft | 146 kts | 166° |
| 2026-04-24 13:00 | -33.82789 | 151.14525 | 2085 ft | 143 kts | 166° |
| 2026-04-24 13:00 | -33.83723 | 151.14767 | 1882 ft | 132 kts | 166° |
| 2026-04-24 13:00 | -33.84603 | 151.14996 | 1729 ft | 128 kts | 166° |
| 2026-04-24 13:00 | -33.85478 | 151.15223 | 1573 ft | 130 kts | 166° |
| 2026-04-24 13:01 | -33.86365 | 151.15453 | 1409 ft | 129 kts | 167° |
| 2026-04-24 13:01 | -33.87245 | 151.15682 | 1224 ft | 129 kts | 167° |
| 2026-04-24 13:01 | -33.88110 | 151.15906 | 1057 ft | 128 kts | 167° |
| 2026-04-24 13:01 | -33.88984 | 151.16133 | 891 ft | 128 kts | 167° |
| 2026-04-24 13:02 | -33.89852 | 151.16361 | 700 ft | 127 kts | 168° |
| 2026-04-24 13:02 | -33.90697 | 151.16591 | 505 ft | 122 kts | 169° |
| 2026-04-24 13:02 | -33.91542 | 151.16811 | 351 ft | 125 kts | 169° |
| 2026-04-24 13:02 | -33.92393 | 151.17031 | 224 ft | 125 kts | 171° |
| 2026-04-24 13:03 | -33.93228 | 151.17245 | 67 ft | 123 kts | 171° |
| 2026-04-24 13:03 | -33.94054 | 151.17446 | 18 ft | 104 kts | 164° |
| 2026-04-24 13:03 | -33.94375 | 151.17528 | 25 ft | 59 kts | 175° |
| 2026-04-24 13:03 | -33.94705 | 151.17618 | 23 ft | 43 kts | 164° |
| 2026-04-24 13:04 | -33.94946 | 151.17680 | 22 ft | 35 kts | 167° |
| 2026-04-24 13:04 | -33.95144 | 151.17759 | 21 ft | 19 kts | 130° |
| 2026-04-24 13:04 | -33.95155 | 151.17811 | 21 ft | 0 kts | 86° |
| 2026-04-24 13:05 | -33.95154 | 151.17830 | 22 ft | 5 kts | 86° |
| 2026-04-24 13:06 | -33.95146 | 151.17887 | 27 ft | 9 kts | 69° |
| 2026-04-24 13:06 | -33.95097 | 151.17931 | 25 ft | 10 kts | 10° |
| 2026-04-24 13:06 | -33.95006 | 151.17921 | 25 ft | 17 kts | 349° |
| 2026-04-24 13:06 | -33.94868 | 151.17882 | 20 ft | 23 kts | 346° |
| 2026-04-24 13:07 | -33.94734 | 151.17841 | 20 ft | 20 kts | 345° |
| 2026-04-24 13:07 | -33.94633 | 151.17808 | 21 ft | 0 kts | 345° |
| 2026-04-24 13:07 | -33.94623 | 151.17808 | 23 ft | 5 kts | 359° |
| 2026-04-24 13:08 | -33.94534 | 151.17809 | 22 ft | 23 kts | 0° |
| 2026-04-24 13:08 | -33.94382 | 151.17765 | 23 ft | 19 kts | 328° |
| 2026-04-24 13:08 | -33.94259 | 151.17705 | 21 ft | 19 kts | 339° |
| 2026-04-24 13:09 | -33.94150 | 151.17661 | 21 ft | 0 kts | 1° |
| 2026-04-24 13:12 | -33.94105 | 151.17661 | 21 ft | 17 kts | 353° |
| 2026-04-24 13:12 | -33.93972 | 151.17629 | 19 ft | 21 kts | 345° |
| 2026-04-24 13:12 | -33.93813 | 151.17585 | 17 ft | 24 kts | 349° |
| 2026-04-24 13:12 | -33.93655 | 151.17591 | 21 ft | 23 kts | 26° |
| 2026-04-24 13:13 | -33.93572 | 151.17639 | 29 ft | 8 kts | 14° |
| 2026-04-24 13:13 | -33.93559 | 151.17650 | 29 ft | 3 kts | 39° |
| 2026-04-24 13:13 | -33.93558 | 151.17669 | 29 ft | 1 kts | 98° |
| 2026-04-24 13:13 | -33.93558 | 151.17674 | 29 ft | 0 kts | 96° |